sensor_id;sensor_type;location;lat;lon;timestamp;P1;durP1;ratioP1;P2;durP2;ratioP2
55288;SDS011;41154;45.394;5.734;2023-05-07T00:00:12;3.13;;;2.30;;
55288;SDS011;41154;45.394;5.734;2023-05-07T00:02:40;3.63;;;2.40;;
55288;SDS011;41154;45.394;5.734;2023-05-07T00:05:06;2.75;;;2.40;;
55288;SDS011;41154;45.394;5.734;2023-05-07T00:07:32;2.85;;;2.20;;
55288;SDS011;41154;45.394;5.734;2023-05-07T00:09:59;3.15;;;2.40;;
55288;SDS011;41154;45.394;5.734;2023-05-07T00:12:25;4.13;;;2.45;;
55288;SDS011;41154;45.394;5.734;2023-05-07T00:14:50;5.30;;;2.33;;
55288;SDS011;41154;45.394;5.734;2023-05-07T00:17:16;3.35;;;2.03;;
55288;SDS011;41154;45.394;5.734;2023-05-07T00:19:42;4.15;;;2.35;;
55288;SDS011;41154;45.394;5.734;2023-05-07T00:22:08;3.53;;;2.22;;
55288;SDS011;41154;45.394;5.734;2023-05-07T00:24:33;2.30;;;2.10;;
55288;SDS011;41154;45.394;5.734;2023-05-07T00:26:59;3.13;;;1.98;;
55288;SDS011;41154;45.394;5.734;2023-05-07T00:29:25;4.82;;;2.35;;
55288;SDS011;41154;45.394;5.734;2023-05-07T00:31:51;6.28;;;2.13;;
55288;SDS011;41154;45.394;5.734;2023-05-07T00:34:19;2.80;;;1.98;;
55288;SDS011;41154;45.394;5.734;2023-05-07T00:36:45;1.60;;;1.15;;
55288;SDS011;41154;45.394;5.734;2023-05-07T00:39:11;1.80;;;1.00;;
55288;SDS011;41154;45.394;5.734;2023-05-07T00:41:36;3.63;;;1.70;;
55288;SDS011;41154;45.394;5.734;2023-05-07T00:44:03;4.32;;;1.60;;
55288;SDS011;41154;45.394;5.734;2023-05-07T00:46:30;2.25;;;1.13;;
55288;SDS011;41154;45.394;5.734;2023-05-07T00:48:56;0.98;;;0.80;;
55288;SDS011;41154;45.394;5.734;2023-05-07T00:51:23;2.20;;;1.60;;
55288;SDS011;41154;45.394;5.734;2023-05-07T00:53:51;2.50;;;1.98;;
55288;SDS011;41154;45.394;5.734;2023-05-07T00:56:18;3.13;;;1.73;;
55288;SDS011;41154;45.394;5.734;2023-05-07T00:58:46;2.42;;;2.00;;
55288;SDS011;41154;45.394;5.734;2023-05-07T01:01:12;4.35;;;1.90;;
55288;SDS011;41154;45.394;5.734;2023-05-07T01:03:38;2.30;;;1.50;;
55288;SDS011;41154;45.394;5.734;2023-05-07T01:06:04;2.58;;;1.40;;
55288;SDS011;41154;45.394;5.734;2023-05-07T01:08:32;1.50;;;1.30;;
55288;SDS011;41154;45.394;5.734;2023-05-07T01:11:00;2.15;;;1.30;;
55288;SDS011;41154;45.394;5.734;2023-05-07T01:13:27;1.48;;;1.10;;
55288;SDS011;41154;45.394;5.734;2023-05-07T01:15:53;1.15;;;1.00;;
55288;SDS011;41154;45.394;5.734;2023-05-07T01:18:19;2.90;;;1.00;;
55288;SDS011;41154;45.394;5.734;2023-05-07T01:20:45;1.58;;;1.13;;
55288;SDS011;41154;45.394;5.734;2023-05-07T01:23:11;2.65;;;1.10;;
55288;SDS011;41154;45.394;5.734;2023-05-07T01:25:37;2.13;;;1.02;;
55288;SDS011;41154;45.394;5.734;2023-05-07T01:28:04;1.70;;;1.45;;
55288;SDS011;41154;45.394;5.734;2023-05-07T01:30:34;5.30;;;1.27;;
55288;SDS011;41154;45.394;5.734;2023-05-07T01:33:08;1.23;;;1.08;;
55288;SDS011;41154;45.394;5.734;2023-05-07T01:35:40;2.05;;;1.17;;
55288;SDS011;41154;45.394;5.734;2023-05-07T01:38:09;1.45;;;1.20;;
55288;SDS011;41154;45.394;5.734;2023-05-07T01:40:35;3.00;;;1.08;;
55288;SDS011;41154;45.394;5.734;2023-05-07T01:43:04;1.33;;;1.17;;
55288;SDS011;41154;45.394;5.734;2023-05-07T01:45:32;2.65;;;1.30;;
55288;SDS011;41154;45.394;5.734;2023-05-07T01:47:59;1.42;;;1.00;;
55288;SDS011;41154;45.394;5.734;2023-05-07T01:50:26;1.30;;;1.00;;
55288;SDS011;41154;45.394;5.734;2023-05-07T01:52:53;3.17;;;1.20;;
55288;SDS011;41154;45.394;5.734;2023-05-07T01:55:19;2.97;;;1.27;;
55288;SDS011;41154;45.394;5.734;2023-05-07T01:57:45;2.10;;;1.17;;
55288;SDS011;41154;45.394;5.734;2023-05-07T02:00:11;1.80;;;1.00;;
55288;SDS011;41154;45.394;5.734;2023-05-07T02:02:43;3.38;;;1.63;;
55288;SDS011;41154;45.394;5.734;2023-05-07T02:05:20;5.15;;;1.70;;
55288;SDS011;41154;45.394;5.734;2023-05-07T02:07:51;1.52;;;1.15;;
55288;SDS011;41154;45.394;5.734;2023-05-07T02:10:17;1.92;;;1.40;;
55288;SDS011;41154;45.394;5.734;2023-05-07T02:12:43;1.98;;;1.25;;
55288;SDS011;41154;45.394;5.734;2023-05-07T02:15:10;1.40;;;1.20;;
55288;SDS011;41154;45.394;5.734;2023-05-07T02:17:38;2.50;;;1.70;;
55288;SDS011;41154;45.394;5.734;2023-05-07T02:20:23;2.03;;;1.63;;
55288;SDS011;41154;45.394;5.734;2023-05-07T02:22:49;2.67;;;1.98;;
55288;SDS011;41154;45.394;5.734;2023-05-07T02:25:15;2.25;;;1.90;;
55288;SDS011;41154;45.394;5.734;2023-05-07T02:27:41;3.55;;;1.77;;
55288;SDS011;41154;45.394;5.734;2023-05-07T02:30:07;1.92;;;1.58;;
55288;SDS011;41154;45.394;5.734;2023-05-07T02:32:33;2.03;;;1.70;;
55288;SDS011;41154;45.394;5.734;2023-05-07T02:34:58;1.80;;;1.70;;
55288;SDS011;41154;45.394;5.734;2023-05-07T02:37:25;2.55;;;1.52;;
55288;SDS011;41154;45.394;5.734;2023-05-07T02:39:50;2.05;;;1.52;;
55288;SDS011;41154;45.394;5.734;2023-05-07T02:42:16;2.22;;;1.38;;
55288;SDS011;41154;45.394;5.734;2023-05-07T02:44:42;2.20;;;1.58;;
55288;SDS011;41154;45.394;5.734;2023-05-07T02:47:08;2.00;;;1.48;;
55288;SDS011;41154;45.394;5.734;2023-05-07T02:49:36;2.40;;;1.48;;
55288;SDS011;41154;45.394;5.734;2023-05-07T02:52:02;1.88;;;1.60;;
55288;SDS011;41154;45.394;5.734;2023-05-07T02:54:28;1.73;;;1.38;;
55288;SDS011;41154;45.394;5.734;2023-05-07T02:56:54;2.42;;;1.65;;
55288;SDS011;41154;45.394;5.734;2023-05-07T02:59:20;1.58;;;1.25;;
55288;SDS011;41154;45.394;5.734;2023-05-07T03:01:46;1.67;;;1.50;;
55288;SDS011;41154;45.394;5.734;2023-05-07T03:04:12;2.90;;;1.38;;
55288;SDS011;41154;45.394;5.734;2023-05-07T03:06:37;2.25;;;1.52;;
55288;SDS011;41154;45.394;5.734;2023-05-07T03:09:03;1.77;;;1.55;;
55288;SDS011;41154;45.394;5.734;2023-05-07T03:11:29;2.90;;;1.58;;
55288;SDS011;41154;45.394;5.734;2023-05-07T03:13:55;3.38;;;1.90;;
55288;SDS011;41154;45.394;5.734;2023-05-07T03:16:21;4.43;;;1.73;;
55288;SDS011;41154;45.394;5.734;2023-05-07T03:18:47;1.65;;;1.30;;
55288;SDS011;41154;45.394;5.734;2023-05-07T03:21:13;2.47;;;1.55;;
55288;SDS011;41154;45.394;5.734;2023-05-07T03:23:39;3.78;;;1.55;;
55288;SDS011;41154;45.394;5.734;2023-05-07T03:26:05;2.45;;;1.75;;
55288;SDS011;41154;45.394;5.734;2023-05-07T03:28:31;2.25;;;1.52;;
55288;SDS011;41154;45.394;5.734;2023-05-07T03:31:01;2.30;;;1.77;;
55288;SDS011;41154;45.394;5.734;2023-05-07T03:33:28;1.83;;;1.38;;
55288;SDS011;41154;45.394;5.734;2023-05-07T03:35:55;3.33;;;1.75;;
55288;SDS011;41154;45.394;5.734;2023-05-07T03:38:24;1.88;;;1.63;;
55288;SDS011;41154;45.394;5.734;2023-05-07T03:40:50;2.38;;;1.27;;
55288;SDS011;41154;45.394;5.734;2023-05-07T03:43:16;3.80;;;1.70;;
55288;SDS011;41154;45.394;5.734;2023-05-07T03:45:47;2.70;;;1.63;;
55288;SDS011;41154;45.394;5.734;2023-05-07T03:48:18;6.22;;;1.60;;
55288;SDS011;41154;45.394;5.734;2023-05-07T03:50:44;3.63;;;2.08;;
55288;SDS011;41154;45.394;5.734;2023-05-07T03:53:10;2.70;;;1.80;;
55288;SDS011;41154;45.394;5.734;2023-05-07T03:55:38;1.83;;;1.52;;
55288;SDS011;41154;45.394;5.734;2023-05-07T03:58:04;2.10;;;1.55;;
55288;SDS011;41154;45.394;5.734;2023-05-07T04:00:30;2.53;;;2.08;;
55288;SDS011;41154;45.394;5.734;2023-05-07T04:03:00;2.05;;;1.50;;
55288;SDS011;41154;45.394;5.734;2023-05-07T04:05:29;1.70;;;1.58;;
55288;SDS011;41154;45.394;5.734;2023-05-07T04:08:00;2.30;;;1.50;;
55288;SDS011;41154;45.394;5.734;2023-05-07T04:10:34;1.50;;;1.30;;
55288;SDS011;41154;45.394;5.734;2023-05-07T04:13:04;3.47;;;1.30;;
55288;SDS011;41154;45.394;5.734;2023-05-07T04:15:30;1.30;;;1.20;;
55288;SDS011;41154;45.394;5.734;2023-05-07T04:17:56;3.95;;;1.70;;
55288;SDS011;41154;45.394;5.734;2023-05-07T04:20:23;1.92;;;1.48;;
55288;SDS011;41154;45.394;5.734;2023-05-07T04:22:56;2.08;;;1.50;;
55288;SDS011;41154;45.394;5.734;2023-05-07T04:25:22;1.50;;;1.33;;
55288;SDS011;41154;45.394;5.734;2023-05-07T04:27:53;3.65;;;1.75;;
55288;SDS011;41154;45.394;5.734;2023-05-07T04:30:19;1.98;;;1.52;;
55288;SDS011;41154;45.394;5.734;2023-05-07T04:32:44;2.45;;;2.08;;
55288;SDS011;41154;45.394;5.734;2023-05-07T04:35:10;2.13;;;1.55;;
55288;SDS011;41154;45.394;5.734;2023-05-07T04:37:38;1.73;;;1.35;;
55288;SDS011;41154;45.394;5.734;2023-05-07T04:40:04;2.83;;;1.60;;
55288;SDS011;41154;45.394;5.734;2023-05-07T04:42:31;2.38;;;1.75;;
55288;SDS011;41154;45.394;5.734;2023-05-07T04:44:58;1.73;;;1.48;;
55288;SDS011;41154;45.394;5.734;2023-05-07T04:47:24;2.63;;;1.52;;
55288;SDS011;41154;45.394;5.734;2023-05-07T04:49:51;3.13;;;1.45;;
55288;SDS011;41154;45.394;5.734;2023-05-07T04:52:18;1.85;;;1.45;;
55288;SDS011;41154;45.394;5.734;2023-05-07T04:54:44;2.10;;;1.60;;
55288;SDS011;41154;45.394;5.734;2023-05-07T04:57:10;1.90;;;1.48;;
55288;SDS011;41154;45.394;5.734;2023-05-07T04:59:36;2.40;;;1.70;;
55288;SDS011;41154;45.394;5.734;2023-05-07T05:02:02;2.28;;;1.60;;
55288;SDS011;41154;45.394;5.734;2023-05-07T05:04:30;2.33;;;1.65;;
55288;SDS011;41154;45.394;5.734;2023-05-07T05:06:56;1.75;;;1.52;;
55288;SDS011;41154;45.394;5.734;2023-05-07T05:09:23;2.53;;;1.70;;
55288;SDS011;41154;45.394;5.734;2023-05-07T05:11:49;2.42;;;1.65;;
55288;SDS011;41154;45.394;5.734;2023-05-07T05:14:15;2.03;;;1.63;;
55288;SDS011;41154;45.394;5.734;2023-05-07T05:16:41;1.77;;;1.50;;
55288;SDS011;41154;45.394;5.734;2023-05-07T05:19:07;2.33;;;1.45;;
55288;SDS011;41154;45.394;5.734;2023-05-07T05:21:36;5.00;;;1.60;;
55288;SDS011;41154;45.394;5.734;2023-05-07T05:24:06;2.45;;;1.80;;
55288;SDS011;41154;45.394;5.734;2023-05-07T05:26:32;2.97;;;1.60;;
55288;SDS011;41154;45.394;5.734;2023-05-07T05:28:57;4.40;;;1.55;;
55288;SDS011;41154;45.394;5.734;2023-05-07T05:31:25;2.55;;;1.42;;
55288;SDS011;41154;45.394;5.734;2023-05-07T05:33:51;1.80;;;1.60;;
55288;SDS011;41154;45.394;5.734;2023-05-07T05:36:17;3.70;;;1.75;;
55288;SDS011;41154;45.394;5.734;2023-05-07T05:38:45;3.00;;;1.60;;
55288;SDS011;41154;45.394;5.734;2023-05-07T05:41:12;3.13;;;1.67;;
55288;SDS011;41154;45.394;5.734;2023-05-07T05:43:38;2.33;;;1.80;;
55288;SDS011;41154;45.394;5.734;2023-05-07T05:46:04;1.70;;;1.40;;
55288;SDS011;41154;45.394;5.734;2023-05-07T05:48:30;2.63;;;1.50;;
55288;SDS011;41154;45.394;5.734;2023-05-07T05:50:57;3.70;;;1.50;;
55288;SDS011;41154;45.394;5.734;2023-05-07T05:53:23;1.85;;;1.48;;
55288;SDS011;41154;45.394;5.734;2023-05-07T05:55:49;1.92;;;1.60;;
55288;SDS011;41154;45.394;5.734;2023-05-07T05:58:16;2.63;;;1.25;;
55288;SDS011;41154;45.394;5.734;2023-05-07T06:00:48;2.33;;;1.50;;
55288;SDS011;41154;45.394;5.734;2023-05-07T06:03:17;1.88;;;1.48;;
55288;SDS011;41154;45.394;5.734;2023-05-07T06:05:44;2.50;;;1.50;;
55288;SDS011;41154;45.394;5.734;2023-05-07T06:08:10;3.25;;;1.50;;
55288;SDS011;41154;45.394;5.734;2023-05-07T06:10:36;1.27;;;1.08;;
55288;SDS011;41154;45.394;5.734;2023-05-07T06:13:03;2.40;;;1.00;;
55288;SDS011;41154;45.394;5.734;2023-05-07T06:15:31;2.05;;;1.20;;
55288;SDS011;41154;45.394;5.734;2023-05-07T06:18:02;1.60;;;1.20;;
55288;SDS011;41154;45.394;5.734;2023-05-07T06:20:28;1.27;;;1.02;;
55288;SDS011;41154;45.394;5.734;2023-05-07T06:22:53;1.23;;;1.10;;
55288;SDS011;41154;45.394;5.734;2023-05-07T06:25:20;1.98;;;1.23;;
55288;SDS011;41154;45.394;5.734;2023-05-07T06:27:46;2.60;;;1.38;;
55288;SDS011;41154;45.394;5.734;2023-05-07T06:30:12;1.23;;;1.00;;
55288;SDS011;41154;45.394;5.734;2023-05-07T06:32:39;1.17;;;1.00;;
55288;SDS011;41154;45.394;5.734;2023-05-07T06:35:07;1.90;;;1.00;;
55288;SDS011;41154;45.394;5.734;2023-05-07T06:37:37;2.97;;;0.90;;
55288;SDS011;41154;45.394;5.734;2023-05-07T06:40:06;0.80;;;0.70;;
55288;SDS011;41154;45.394;5.734;2023-05-07T06:42:37;1.23;;;0.90;;
55288;SDS011;41154;45.394;5.734;2023-05-07T06:45:21;1.30;;;0.77;;
55288;SDS011;41154;45.394;5.734;2023-05-07T06:47:48;3.10;;;1.00;;
55288;SDS011;41154;45.394;5.734;2023-05-07T06:50:13;1.70;;;0.90;;
55288;SDS011;41154;45.394;5.734;2023-05-07T06:52:43;1.33;;;0.95;;
55288;SDS011;41154;45.394;5.734;2023-05-07T06:55:09;2.78;;;0.80;;
55288;SDS011;41154;45.394;5.734;2023-05-07T06:57:36;1.35;;;1.00;;
55288;SDS011;41154;45.394;5.734;2023-05-07T07:00:03;0.90;;;0.80;;
55288;SDS011;41154;45.394;5.734;2023-05-07T07:02:40;2.45;;;0.98;;
55288;SDS011;41154;45.394;5.734;2023-05-07T07:05:08;1.80;;;0.90;;
55288;SDS011;41154;45.394;5.734;2023-05-07T07:07:34;1.63;;;0.85;;
55288;SDS011;41154;45.394;5.734;2023-05-07T07:10:00;1.45;;;1.08;;
55288;SDS011;41154;45.394;5.734;2023-05-07T07:12:28;3.08;;;1.10;;
55288;SDS011;41154;45.394;5.734;2023-05-07T07:14:55;2.65;;;0.90;;
55288;SDS011;41154;45.394;5.734;2023-05-07T07:17:22;1.70;;;1.00;;
55288;SDS011;41154;45.394;5.734;2023-05-07T07:19:47;1.13;;;0.82;;
55288;SDS011;41154;45.394;5.734;2023-05-07T07:22:13;1.50;;;0.98;;
55288;SDS011;41154;45.394;5.734;2023-05-07T07:24:40;3.00;;;0.90;;
55288;SDS011;41154;45.394;5.734;2023-05-07T07:27:08;1.77;;;1.20;;
55288;SDS011;41154;45.394;5.734;2023-05-07T07:29:34;1.10;;;0.98;;
55288;SDS011;41154;45.394;5.734;2023-05-07T07:32:00;1.08;;;0.93;;
55288;SDS011;41154;45.394;5.734;2023-05-07T07:34:26;2.13;;;1.00;;
55288;SDS011;41154;45.394;5.734;2023-05-07T07:36:52;1.15;;;0.95;;
55288;SDS011;41154;45.394;5.734;2023-05-07T07:39:18;3.55;;;1.23;;
55288;SDS011;41154;45.394;5.734;2023-05-07T07:41:47;3.08;;;1.08;;
55288;SDS011;41154;45.394;5.734;2023-05-07T07:44:14;2.95;;;1.30;;
55288;SDS011;41154;45.394;5.734;2023-05-07T07:46:40;1.10;;;0.90;;
55288;SDS011;41154;45.394;5.734;2023-05-07T07:49:06;2.38;;;1.10;;
55288;SDS011;41154;45.394;5.734;2023-05-07T07:51:33;1.70;;;1.10;;
55288;SDS011;41154;45.394;5.734;2023-05-07T07:54:00;1.33;;;1.10;;
55288;SDS011;41154;45.394;5.734;2023-05-07T07:56:28;1.38;;;0.90;;
55288;SDS011;41154;45.394;5.734;2023-05-07T07:58:54;1.52;;;1.05;;
55288;SDS011;41154;45.394;5.734;2023-05-07T08:01:20;3.13;;;0.90;;
55288;SDS011;41154;45.394;5.734;2023-05-07T08:03:46;3.10;;;1.08;;
55288;SDS011;41154;45.394;5.734;2023-05-07T08:06:12;2.55;;;0.90;;
55288;SDS011;41154;45.394;5.734;2023-05-07T08:08:39;2.28;;;1.02;;
55288;SDS011;41154;45.394;5.734;2023-05-07T08:11:05;1.42;;;0.80;;
55288;SDS011;41154;45.394;5.734;2023-05-07T08:13:34;1.60;;;0.82;;
55288;SDS011;41154;45.394;5.734;2023-05-07T08:16:00;1.38;;;0.98;;
55288;SDS011;41154;45.394;5.734;2023-05-07T08:18:26;2.50;;;0.93;;
55288;SDS011;41154;45.394;5.734;2023-05-07T08:20:53;1.33;;;1.00;;
55288;SDS011;41154;45.394;5.734;2023-05-07T08:23:23;1.33;;;1.10;;
55288;SDS011;41154;45.394;5.734;2023-05-07T08:25:49;1.30;;;1.00;;
55288;SDS011;41154;45.394;5.734;2023-05-07T08:28:17;2.60;;;1.17;;
55288;SDS011;41154;45.394;5.734;2023-05-07T08:30:43;2.10;;;1.17;;
55288;SDS011;41154;45.394;5.734;2023-05-07T08:33:09;1.42;;;1.00;;
55288;SDS011;41154;45.394;5.734;2023-05-07T08:35:35;1.25;;;0.93;;
55288;SDS011;41154;45.394;5.734;2023-05-07T08:38:01;3.50;;;1.00;;
55288;SDS011;41154;45.394;5.734;2023-05-07T08:40:27;1.10;;;1.00;;
55288;SDS011;41154;45.394;5.734;2023-05-07T08:42:56;2.65;;;1.00;;
55288;SDS011;41154;45.394;5.734;2023-05-07T08:45:23;4.40;;;1.05;;
55288;SDS011;41154;45.394;5.734;2023-05-07T08:47:52;2.05;;;1.00;;
55288;SDS011;41154;45.394;5.734;2023-05-07T08:50:24;1.60;;;0.93;;
55288;SDS011;41154;45.394;5.734;2023-05-07T08:52:51;1.88;;;0.80;;
55288;SDS011;41154;45.394;5.734;2023-05-07T08:55:18;2.53;;;1.40;;
55288;SDS011;41154;45.394;5.734;2023-05-07T08:57:46;1.40;;;1.30;;
55288;SDS011;41154;45.394;5.734;2023-05-07T09:00:13;2.63;;;1.17;;
55288;SDS011;41154;45.394;5.734;2023-05-07T09:02:41;4.18;;;1.10;;
55288;SDS011;41154;45.394;5.734;2023-05-07T09:05:08;1.73;;;0.98;;
55288;SDS011;41154;45.394;5.734;2023-05-07T09:07:35;1.17;;;0.85;;
55288;SDS011;41154;45.394;5.734;2023-05-07T09:10:03;2.83;;;1.17;;
55288;SDS011;41154;45.394;5.734;2023-05-07T09:12:31;2.95;;;1.38;;
55288;SDS011;41154;45.394;5.734;2023-05-07T09:14:58;1.83;;;1.40;;
55288;SDS011;41154;45.394;5.734;2023-05-07T09:17:25;3.78;;;1.55;;
55288;SDS011;41154;45.394;5.734;2023-05-07T09:19:51;3.47;;;1.52;;
55288;SDS011;41154;45.394;5.734;2023-05-07T09:22:19;1.10;;;0.95;;
55288;SDS011;41154;45.394;5.734;2023-05-07T09:25:05;1.38;;;1.00;;
55288;SDS011;41154;45.394;5.734;2023-05-07T09:27:32;1.77;;;1.40;;
55288;SDS011;41154;45.394;5.734;2023-05-07T09:29:58;1.50;;;1.33;;
55288;SDS011;41154;45.394;5.734;2023-05-07T09:32:24;1.10;;;1.00;;
55288;SDS011;41154;45.394;5.734;2023-05-07T09:34:53;2.10;;;1.10;;
55288;SDS011;41154;45.394;5.734;2023-05-07T09:37:23;1.67;;;1.40;;
55288;SDS011;41154;45.394;5.734;2023-05-07T09:39:51;1.58;;;1.10;;
55288;SDS011;41154;45.394;5.734;2023-05-07T09:42:24;1.80;;;1.20;;
55288;SDS011;41154;45.394;5.734;2023-05-07T09:44:53;1.92;;;1.30;;
55288;SDS011;41154;45.394;5.734;2023-05-07T09:47:23;2.05;;;0.90;;
55288;SDS011;41154;45.394;5.734;2023-05-07T09:49:54;3.58;;;1.00;;
55288;SDS011;41154;45.394;5.734;2023-05-07T09:52:23;1.40;;;0.85;;
55288;SDS011;41154;45.394;5.734;2023-05-07T09:54:53;1.10;;;1.00;;
55288;SDS011;41154;45.394;5.734;2023-05-07T09:57:23;4.55;;;1.33;;
55288;SDS011;41154;45.394;5.734;2023-05-07T09:59:54;1.25;;;0.90;;
55288;SDS011;41154;45.394;5.734;2023-05-07T10:02:25;2.33;;;1.40;;
55288;SDS011;41154;45.394;5.734;2023-05-07T10:04:55;4.63;;;1.33;;
55288;SDS011;41154;45.394;5.734;2023-05-07T10:07:27;2.75;;;1.20;;
55288;SDS011;41154;45.394;5.734;2023-05-07T10:09:56;4.00;;;1.30;;
55288;SDS011;41154;45.394;5.734;2023-05-07T10:12:31;5.30;;;1.38;;
55288;SDS011;41154;45.394;5.734;2023-05-07T10:15:07;1.88;;;1.40;;
55288;SDS011;41154;45.394;5.734;2023-05-07T10:17:37;1.75;;;1.40;;
55288;SDS011;41154;45.394;5.734;2023-05-07T10:20:04;1.90;;;1.50;;
55288;SDS011;41154;45.394;5.734;2023-05-07T10:22:32;2.47;;;1.40;;
55288;SDS011;41154;45.394;5.734;2023-05-07T10:25:06;1.85;;;1.40;;
55288;SDS011;41154;45.394;5.734;2023-05-07T10:27:55;2.83;;;1.67;;
55288;SDS011;41154;45.394;5.734;2023-05-07T10:33:23;2.17;;;1.60;;
55288;SDS011;41154;45.394;5.734;2023-05-07T10:35:55;3.33;;;1.42;;
55288;SDS011;41154;45.394;5.734;2023-05-07T10:40:58;2.60;;;1.60;;
55288;SDS011;41154;45.394;5.734;2023-05-07T10:43:24;2.10;;;1.30;;
55288;SDS011;41154;45.394;5.734;2023-05-07T10:46:15;4.55;;;2.70;;
55288;SDS011;41154;45.394;5.734;2023-05-07T10:51:41;2.10;;;1.40;;
55288;SDS011;41154;45.394;5.734;2023-05-07T10:56:53;3.35;;;1.50;;
55288;SDS011;41154;45.394;5.734;2023-05-07T10:59:30;3.22;;;1.48;;
55288;SDS011;41154;45.394;5.734;2023-05-07T11:02:03;3.22;;;1.33;;
55288;SDS011;41154;45.394;5.734;2023-05-07T11:04:47;1.95;;;1.40;;
55288;SDS011;41154;45.394;5.734;2023-05-07T11:07:55;2.35;;;1.38;;
55288;SDS011;41154;45.394;5.734;2023-05-07T11:16:34;1.83;;;1.20;;
55288;SDS011;41154;45.394;5.734;2023-05-07T11:19:14;2.85;;;1.60;;
55288;SDS011;41154;45.394;5.734;2023-05-07T11:21:45;3.00;;;1.70;;
55288;SDS011;41154;45.394;5.734;2023-05-07T11:24:21;2.95;;;1.60;;
55288;SDS011;41154;45.394;5.734;2023-05-07T11:26:52;2.97;;;1.33;;
55288;SDS011;41154;45.394;5.734;2023-05-07T11:29:21;1.73;;;1.48;;
55288;SDS011;41154;45.394;5.734;2023-05-07T11:31:52;2.20;;;1.55;;
55288;SDS011;41154;45.394;5.734;2023-05-07T11:34:22;3.85;;;1.80;;
55288;SDS011;41154;45.394;5.734;2023-05-07T11:36:49;2.08;;;1.52;;
55288;SDS011;41154;45.394;5.734;2023-05-07T11:39:30;2.25;;;1.48;;
55288;SDS011;41154;45.394;5.734;2023-05-07T11:41:58;2.90;;;1.77;;
55288;SDS011;41154;45.394;5.734;2023-05-07T11:44:25;3.53;;;1.70;;
55288;SDS011;41154;45.394;5.734;2023-05-07T11:46:50;3.42;;;1.60;;
55288;SDS011;41154;45.394;5.734;2023-05-07T11:49:16;2.38;;;1.70;;
55288;SDS011;41154;45.394;5.734;2023-05-07T11:51:42;2.78;;;1.58;;
55288;SDS011;41154;45.394;5.734;2023-05-07T11:54:08;2.42;;;1.52;;
55288;SDS011;41154;45.394;5.734;2023-05-07T11:56:36;4.72;;;1.90;;
55288;SDS011;41154;45.394;5.734;2023-05-07T11:59:02;1.90;;;1.50;;
55288;SDS011;41154;45.394;5.734;2023-05-07T12:01:28;5.30;;;1.55;;
55288;SDS011;41154;45.394;5.734;2023-05-07T12:03:54;1.80;;;1.33;;
55288;SDS011;41154;45.394;5.734;2023-05-07T12:06:19;1.92;;;1.45;;
55288;SDS011;41154;45.394;5.734;2023-05-07T12:08:45;2.55;;;1.23;;
55288;SDS011;41154;45.394;5.734;2023-05-07T12:11:24;2.17;;;1.55;;
55288;SDS011;41154;45.394;5.734;2023-05-07T12:13:50;3.03;;;1.60;;
55288;SDS011;41154;45.394;5.734;2023-05-07T12:16:17;1.73;;;1.60;;
55288;SDS011;41154;45.394;5.734;2023-05-07T12:18:44;3.22;;;1.60;;
55288;SDS011;41154;45.394;5.734;2023-05-07T12:21:11;4.20;;;1.70;;
55288;SDS011;41154;45.394;5.734;2023-05-07T12:23:37;6.03;;;1.85;;
55288;SDS011;41154;45.394;5.734;2023-05-07T12:26:04;3.25;;;1.70;;
55288;SDS011;41154;45.394;5.734;2023-05-07T12:28:31;2.20;;;1.70;;
55288;SDS011;41154;45.394;5.734;2023-05-07T12:31:01;2.75;;;1.73;;
55288;SDS011;41154;45.394;5.734;2023-05-07T12:33:27;1.75;;;1.50;;
55288;SDS011;41154;45.394;5.734;2023-05-07T12:35:54;2.63;;;1.88;;
55288;SDS011;41154;45.394;5.734;2023-05-07T12:38:21;3.50;;;1.90;;
55288;SDS011;41154;45.394;5.734;2023-05-07T12:40:48;3.38;;;1.77;;
55288;SDS011;41154;45.394;5.734;2023-05-07T12:43:19;4.95;;;2.00;;
55288;SDS011;41154;45.394;5.734;2023-05-07T12:45:46;5.63;;;3.80;;
55288;SDS011;41154;45.394;5.734;2023-05-07T12:48:13;5.30;;;4.13;;
55288;SDS011;41154;45.394;5.734;2023-05-07T12:50:39;2.92;;;1.90;;
55288;SDS011;41154;45.394;5.734;2023-05-07T12:53:06;2.42;;;1.75;;
55288;SDS011;41154;45.394;5.734;2023-05-07T12:55:49;3.15;;;1.92;;
55288;SDS011;41154;45.394;5.734;2023-05-07T12:58:20;2.55;;;1.90;;
55288;SDS011;41154;45.394;5.734;2023-05-07T13:00:51;3.60;;;2.13;;
55288;SDS011;41154;45.394;5.734;2023-05-07T13:03:21;2.92;;;1.98;;
55288;SDS011;41154;45.394;5.734;2023-05-07T13:05:55;3.35;;;2.30;;
55288;SDS011;41154;45.394;5.734;2023-05-07T13:08:23;2.80;;;1.98;;
55288;SDS011;41154;45.394;5.734;2023-05-07T13:10:57;2.55;;;1.90;;
55288;SDS011;41154;45.394;5.734;2023-05-07T13:13:25;3.08;;;2.10;;
55288;SDS011;41154;45.394;5.734;2023-05-07T13:15:50;4.32;;;2.03;;
55288;SDS011;41154;45.394;5.734;2023-05-07T13:18:17;3.70;;;2.20;;
55288;SDS011;41154;45.394;5.734;2023-05-07T13:20:42;4.28;;;2.05;;
55288;SDS011;41154;45.394;5.734;2023-05-07T13:23:08;4.70;;;2.53;;
55288;SDS011;41154;45.394;5.734;2023-05-07T13:25:34;5.15;;;2.72;;
55288;SDS011;41154;45.394;5.734;2023-05-07T13:28:00;3.20;;;2.50;;
55288;SDS011;41154;45.394;5.734;2023-05-07T13:30:26;3.65;;;2.38;;
55288;SDS011;41154;45.394;5.734;2023-05-07T13:32:55;2.72;;;2.10;;
55288;SDS011;41154;45.394;5.734;2023-05-07T13:35:21;4.60;;;2.25;;
55288;SDS011;41154;45.394;5.734;2023-05-07T13:37:46;4.95;;;2.40;;
55288;SDS011;41154;45.394;5.734;2023-05-07T13:40:14;3.33;;;2.55;;
55288;SDS011;41154;45.394;5.734;2023-05-07T13:42:40;5.78;;;3.80;;
55288;SDS011;41154;45.394;5.734;2023-05-07T13:45:07;3.45;;;2.10;;
55288;SDS011;41154;45.394;5.734;2023-05-07T13:47:33;4.13;;;2.38;;
55288;SDS011;41154;45.394;5.734;2023-05-07T13:49:59;3.65;;;2.30;;
55288;SDS011;41154;45.394;5.734;2023-05-07T13:52:25;3.92;;;2.13;;
55288;SDS011;41154;45.394;5.734;2023-05-07T13:54:51;3.58;;;2.58;;
55288;SDS011;41154;45.394;5.734;2023-05-07T13:57:17;3.17;;;2.20;;
55288;SDS011;41154;45.394;5.734;2023-05-07T13:59:43;5.07;;;2.85;;
55288;SDS011;41154;45.394;5.734;2023-05-07T14:02:09;4.28;;;2.17;;
55288;SDS011;41154;45.394;5.734;2023-05-07T14:04:35;3.80;;;2.53;;
55288;SDS011;41154;45.394;5.734;2023-05-07T14:07:02;2.47;;;2.20;;
55288;SDS011;41154;45.394;5.734;2023-05-07T14:09:28;4.43;;;2.50;;
55288;SDS011;41154;45.394;5.734;2023-05-07T14:11:54;2.97;;;2.05;;
55288;SDS011;41154;45.394;5.734;2023-05-07T14:14:20;2.60;;;2.00;;
55288;SDS011;41154;45.394;5.734;2023-05-07T14:16:45;2.80;;;2.10;;
55288;SDS011;41154;45.394;5.734;2023-05-07T14:19:11;3.58;;;2.20;;
55288;SDS011;41154;45.394;5.734;2023-05-07T14:21:37;2.92;;;2.13;;
55288;SDS011;41154;45.394;5.734;2023-05-07T14:24:03;3.75;;;2.10;;
55288;SDS011;41154;45.394;5.734;2023-05-07T14:26:31;4.20;;;2.50;;
55288;SDS011;41154;45.394;5.734;2023-05-07T14:28:57;2.58;;;2.00;;
55288;SDS011;41154;45.394;5.734;2023-05-07T14:31:24;6.25;;;2.40;;
55288;SDS011;41154;45.394;5.734;2023-05-07T14:33:50;6.15;;;3.00;;
55288;SDS011;41154;45.394;5.734;2023-05-07T14:36:17;3.85;;;2.65;;
55288;SDS011;41154;45.394;5.734;2023-05-07T14:38:45;2.95;;;2.13;;
55288;SDS011;41154;45.394;5.734;2023-05-07T14:41:11;6.00;;;2.75;;
55288;SDS011;41154;45.394;5.734;2023-05-07T14:43:37;2.63;;;1.90;;
55288;SDS011;41154;45.394;5.734;2023-05-07T14:46:02;2.35;;;2.00;;
55288;SDS011;41154;45.394;5.734;2023-05-07T14:48:28;5.93;;;2.20;;
55288;SDS011;41154;45.394;5.734;2023-05-07T14:50:54;3.65;;;2.63;;
55288;SDS011;41154;45.394;5.734;2023-05-07T14:53:21;4.20;;;2.97;;
55288;SDS011;41154;45.394;5.734;2023-05-07T14:55:47;3.75;;;2.35;;
55288;SDS011;41154;45.394;5.734;2023-05-07T14:58:13;3.67;;;2.22;;
55288;SDS011;41154;45.394;5.734;2023-05-07T15:00:39;3.33;;;2.65;;
55288;SDS011;41154;45.394;5.734;2023-05-07T15:03:06;6.10;;;2.83;;
55288;SDS011;41154;45.394;5.734;2023-05-07T15:05:33;2.63;;;2.17;;
55288;SDS011;41154;45.394;5.734;2023-05-07T15:07:59;4.75;;;2.53;;